Time;durP1;ratioP1;P1;durP2;ratioP2;P2;SDS_P1;SDS_P2;PMS_P1;PMS_P2;Temp;Humidity;BMP_temperature;BMP_pressure;BME280_temperature;BME280_humidity;BME280_pressure;Samples;Min_cycle;Max_cycle;Signal;HPM_P1;HPM_P2
2021/12/09 00:01:49;;;;;;;59.13;24.33;;;1.30;99.90;;;;;;5093539;28;20040;-74
2021/12/09 00:04:23;;;;;;;50.60;22.17;;;1.10;99.90;;;;;;5093472;28;20517;-75
2021/12/09 00:06:51;;;;;;;58.73;23.90;;;1.10;99.90;;;;;;5092264;28;20052;-74
2021/12/09 00:09:19;;;;;;;55.13;23.67;;;1.10;99.90;;;;;;5093065;28;20054;-75
2021/12/09 00:11:49;;;;;;;54.60;23.83;;;1.10;99.90;;;;;;5093225;28;20069;-73
2021/12/09 00:14:18;;;;;;;53.43;22.97;;;1.10;99.90;;;;;;5093447;28;20096;-74
2021/12/09 00:16:47;;;;;;;50.50;21.70;;;1.10;99.90;;;;;;5092746;28;20097;-75
2021/12/09 00:19:14;;;;;;;49.67;22.70;;;1.10;99.90;;;;;;5092437;28;20044;-75
2021/12/09 00:21:41;;;;;;;50.17;21.93;;;1.10;99.90;;;;;;5092993;28;20081;-73
2021/12/09 00:24:09;;;;;;;42.57;21.73;;;1.20;99.90;;;;;;5093085;28;20052;-75
2021/12/09 00:26:38;;;;;;;52.83;23.10;;;1.10;99.90;;;;;;5092168;28;20048;-75
2021/12/09 00:29:06;;;;;;;51.27;21.93;;;1.10;99.90;;;;;;5093370;28;20075;-75
2021/12/09 00:31:33;;;;;;;40.40;20.17;;;1.10;99.90;;;;;;5094144;28;20044;-75
2021/12/09 00:34:02;;;;;;;45.37;20.50;;;1.10;99.90;;;;;;5094040;28;20083;-73
2021/12/09 00:36:37;;;;;;;50.97;20.17;;;1.10;99.90;;;;;;5094195;28;20052;-75
2021/12/09 00:39:07;;;;;;;48.80;22.80;;;1.10;99.90;;;;;;5093765;28;20048;-74
2021/12/09 00:41:35;;;;;;;44.80;20.33;;;1.10;99.90;;;;;;5093858;28;20044;-75
2021/12/09 00:44:02;;;;;;;49.97;21.23;;;1.20;99.90;;;;;;5093993;28;20462;-75
2021/12/09 00:46:30;;;;;;;46.97;19.70;;;1.30;99.90;;;;;;5093954;28;20052;-74
2021/12/09 00:48:57;;;;;;;54.30;22.27;;;1.30;99.90;;;;;;5094038;28;20514;-74
2021/12/09 00:51:26;;;;;;;53.33;21.43;;;1.40;99.90;;;;;;5094028;28;20102;-75
2021/12/09 00:53:53;;;;;;;49.07;22.40;;;1.20;99.90;;;;;;5094126;28;20052;-75
2021/12/09 00:56:20;;;;;;;51.20;21.53;;;1.30;99.90;;;;;;5093726;28;20083;-73
2021/12/09 00:58:47;;;;;;;48.83;21.93;;;1.40;99.90;;;;;;5093285;28;20113;-75
2021/12/09 01:01:15;;;;;;;46.90;20.20;;;1.30;99.90;;;;;;5092534;28;20058;-75
2021/12/09 01:03:43;;;;;;;48.60;19.97;;;1.20;99.90;;;;;;5092967;28;20055;-75
2021/12/09 01:06:11;;;;;;;47.43;21.03;;;1.30;99.90;;;;;;5091977;28;20101;-74
2021/12/09 01:08:39;;;;;;;54.23;22.40;;;1.20;99.90;;;;;;5092357;28;20086;-74
2021/12/09 01:11:07;;;;;;;48.60;21.47;;;1.20;99.90;;;;;;5092862;28;20059;-75
2021/12/09 01:13:35;;;;;;;48.33;20.37;;;1.20;99.90;;;;;;5091971;28;20102;-75
2021/12/09 01:16:02;;;;;;;53.40;20.93;;;1.20;99.90;;;;;;5091488;28;20384;-74
2021/12/09 01:18:29;;;;;;;51.70;22.50;;;1.40;99.90;;;;;;5092551;28;20048;-74
2021/12/09 01:20:57;;;;;;;54.97;22.00;;;1.20;99.90;;;;;;5093013;28;20109;-73
2021/12/09 01:23:24;;;;;;;49.93;22.40;;;1.10;99.90;;;;;;5092279;28;20537;-73
2021/12/09 01:25:58;;;;;;;52.53;22.60;;;1.10;99.90;;;;;;5091501;28;20044;-74
2021/12/09 01:28:28;;;;;;;52.83;21.57;;;1.30;99.90;;;;;;5092643;28;20364;-75
2021/12/09 01:31:01;;;;;;;51.97;21.63;;;1.30;99.90;;;;;;5092748;28;20044;-74
2021/12/09 01:33:29;;;;;;;41.93;20.80;;;1.20;99.90;;;;;;5092765;28;20051;-74
2021/12/09 01:35:56;;;;;;;46.73;20.53;;;1.20;99.90;;;;;;5092164;28;20099;-75
2021/12/09 01:38:25;;;;;;;45.10;20.03;;;1.20;99.90;;;;;;5091958;28;20184;-74
2021/12/09 01:40:55;;;;;;;40.37;19.03;;;1.20;99.90;;;;;;5092393;28;20403;-74
2021/12/09 01:43:22;;;;;;;43.10;19.40;;;1.20;99.90;;;;;;5092448;28;20412;-75
2021/12/09 01:45:49;;;;;;;47.60;21.23;;;1.20;99.90;;;;;;5092438;28;20054;-74
2021/12/09 01:48:17;;;;;;;52.03;21.60;;;1.10;99.90;;;;;;5093543;28;20044;-75
2021/12/09 01:50:44;;;;;;;49.13;21.03;;;1.10;99.90;;;;;;5093857;28;20492;-75
2021/12/09 01:53:11;;;;;;;45.00;20.63;;;1.10;99.90;;;;;;5097285;28;20066;-74
2021/12/09 01:55:38;;;;;;;51.87;21.10;;;1.10;99.90;;;;;;5096203;28;20044;-73
2021/12/09 01:58:06;;;;;;;49.23;20.40;;;1.10;99.90;;;;;;5097486;28;20082;-73
2021/12/09 02:00:37;;;;;;;41.77;19.53;;;1.10;99.90;;;;;;5097225;28;20067;-74
2021/12/09 02:03:05;;;;;;;47.80;19.60;;;1.10;99.90;;;;;;5096977;28;20044;-74
2021/12/09 02:05:33;;;;;;;44.57;19.87;;;1.10;99.90;;;;;;5096206;28;20052;-74
2021/12/09 02:08:00;;;;;;;48.07;19.90;;;1.10;99.90;;;;;;5096787;28;20044;-74
2021/12/09 02:10:28;;;;;;;46.57;20.77;;;1.10;99.90;;;;;;5096743;28;20047;-74
2021/12/09 02:12:56;;;;;;;52.47;21.27;;;1.10;99.90;;;;;;5096364;28;20094;-75
2021/12/09 02:15:25;;;;;;;47.53;20.83;;;1.10;99.90;;;;;;5096231;28;20052;-74
2021/12/09 02:17:53;;;;;;;48.53;21.23;;;1.10;99.90;;;;;;5096065;28;20050;-74
2021/12/09 02:20:21;;;;;;;51.97;22.63;;;1.10;99.90;;;;;;5096250;28;20067;-74
2021/12/09 02:22:51;;;;;;;51.73;22.50;;;1.20;99.90;;;;;;5095976;28;20044;-75
2021/12/09 02:25:19;;;;;;;47.40;20.20;;;1.10;99.90;;;;;;5095217;28;20059;-72
2021/12/09 02:27:47;;;;;;;53.67;22.03;;;1.20;99.90;;;;;;5096057;28;20105;-75
2021/12/09 02:30:14;;;;;;;51.47;22.27;;;1.10;99.90;;;;;;5096026;28;20256;-75
2021/12/09 02:32:42;;;;;;;49.37;20.90;;;1.20;99.90;;;;;;5095505;28;20113;-74
2021/12/09 02:35:10;;;;;;;48.23;21.23;;;1.10;99.90;;;;;;5094658;28;20083;-73
2021/12/09 02:37:37;;;;;;;46.67;20.20;;;1.10;99.90;;;;;;5099905;28;20059;-74
2021/12/09 02:40:07;;;;;;;43.80;20.27;;;1.10;99.90;;;;;;5098090;28;20052;-73
2021/12/09 02:42:35;;;;;;;45.03;19.57;;;1.10;99.90;;;;;;5095376;28;20536;-74
2021/12/09 02:45:03;;;;;;;43.97;20.47;;;1.20;99.90;;;;;;5094308;28;20113;-74
2021/12/09 02:47:30;;;;;;;38.87;17.03;;;1.20;99.90;;;;;;5094964;28;20060;-75
2021/12/09 02:49:57;;;;;;;43.43;17.90;;;1.20;99.90;;;;;;5095209;28;20048;-74
2021/12/09 02:52:24;;;;;;;39.90;19.03;;;1.20;99.90;;;;;;5095455;28;20052;-74
2021/12/09 02:54:51;;;;;;;39.47;17.37;;;1.20;99.90;;;;;;5094977;28;20083;-73
2021/12/09 02:57:20;;;;;;;39.50;17.00;;;1.30;99.90;;;;;;5095227;28;20052;-74
2021/12/09 02:59:47;;;;;;;35.83;15.97;;;1.30;99.90;;;;;;5094317;28;20469;-74
2021/12/09 03:02:14;;;;;;;34.83;16.40;;;1.30;99.90;;;;;;5095004;28;20117;-74
2021/12/09 03:04:46;;;;;;;30.83;14.77;;;1.30;99.90;;;;;;5094834;28;20048;-74
2021/12/09 03:07:16;;;;;;;36.80;16.40;;;1.30;99.90;;;;;;5095546;28;20135;-74
2021/12/09 03:09:49;;;;;;;36.33;15.27;;;1.30;99.90;;;;;;5095424;28;20063;-74
2021/12/09 03:12:21;;;;;;;29.20;13.33;;;1.20;99.90;;;;;;5095863;28;20055;-74
2021/12/09 03:14:48;;;;;;;28.40;13.83;;;1.30;99.90;;;;;;5094868;28;20063;-74
2021/12/09 03:17:16;;;;;;;27.20;13.60;;;1.20;99.90;;;;;;5096336;28;20496;-74
2021/12/09 03:19:43;;;;;;;27.93;12.90;;;1.20;99.90;;;;;;5108709;22;20040;-69
2021/12/09 03:22:11;;;;;;;27.10;12.73;;;1.20;99.90;;;;;;5090965;28;20056;-69
2021/12/09 03:24:38;;;;;;;27.40;12.90;;;1.20;99.90;;;;;;5091131;28;20043;-69
2021/12/09 03:27:06;;;;;;;26.20;11.97;;;1.20;99.90;;;;;;5100262;28;20048;-69
2021/12/09 03:29:35;;;;;;;26.77;12.30;;;1.20;99.90;;;;;;5091567;28;20055;-69
2021/12/09 03:32:07;;;;;;;24.87;12.03;;;1.20;99.90;;;;;;5095922;28;20072;-69
2021/12/09 03:34:35;;;;;;;26.50;12.07;;;1.20;99.90;;;;;;5114352;28;20089;-69
2021/12/09 03:37:07;;;;;;;23.37;11.93;;;1.20;99.90;;;;;;5101946;28;20439;-69
2021/12/09 03:39:36;;;;;;;22.80;10.70;;;1.20;99.90;;;;;;5091187;28;20053;-69
2021/12/09 03:42:06;;;;;;;28.30;12.67;;;1.20;99.90;;;;;;5091166;28;20044;-69
2021/12/09 03:44:36;;;;;;;28.93;13.00;;;1.20;99.90;;;;;;5091029;28;20044;-69
2021/12/09 03:47:07;;;;;;;27.50;12.63;;;1.20;99.90;;;;;;5090547;28;20051;-69
2021/12/09 03:49:35;;;;;;;27.07;12.77;;;1.20;99.90;;;;;;5090987;28;20048;-69
2021/12/09 03:52:03;;;;;;;24.20;12.37;;;1.20;99.90;;;;;;5091757;28;20064;-69
2021/12/09 03:54:30;;;;;;;23.33;11.53;;;1.20;99.90;;;;;;5091644;28;20048;-69
2021/12/09 03:56:58;;;;;;;25.67;12.27;;;1.20;99.90;;;;;;5091090;28;20493;-69
2021/12/09 03:59:25;;;;;;;29.87;14.17;;;1.20;99.90;;;;;;5091264;28;20052;-69
2021/12/09 04:01:54;;;;;;;25.73;12.97;;;1.30;99.90;;;;;;5091013;28;20109;-69
2021/12/09 04:04:22;;;;;;;25.13;12.30;;;1.30;99.90;;;;;;5089935;28;20044;-69
2021/12/09 04:06:49;;;;;;;27.57;13.23;;;1.30;99.90;;;;;;5089973;28;20106;-69
2021/12/09 04:09:19;;;;;;;27.97;13.23;;;1.20;99.90;;;;;;5090429;28;20055;-69
2021/12/09 04:11:46;;;;;;;28.07;13.47;;;1.20;99.90;;;;;;5090607;28;20064;-69
2021/12/09 04:14:13;;;;;;;31.20;14.57;;;1.20;99.90;;;;;;5089529;28;20091;-69
2021/12/09 04:16:41;;;;;;;31.83;13.17;;;1.20;99.90;;;;;;5089549;28;20093;-69
2021/12/09 04:19:10;;;;;;;29.33;13.47;;;1.20;99.90;;;;;;5090259;28;20496;-69
2021/12/09 04:21:40;;;;;;;25.90;11.87;;;1.20;99.90;;;;;;5090013;28;20048;-69
2021/12/09 04:24:09;;;;;;;27.47;13.37;;;1.20;99.90;;;;;;5090140;28;20075;-69
2021/12/09 04:26:37;;;;;;;28.63;14.00;;;1.20;99.90;;;;;;5089577;28;20109;-69
2021/12/09 04:29:06;;;;;;;34.40;14.50;;;1.20;99.90;;;;;;5090132;28;20083;-69
2021/12/09 04:31:33;;;;;;;33.57;14.70;;;1.20;99.90;;;;;;5089846;28;20052;-69
2021/12/09 04:34:00;;;;;;;34.77;15.00;;;1.20;99.90;;;;;;5090037;28;20550;-69
2021/12/09 04:36:29;;;;;;;31.90;14.73;;;1.20;99.90;;;;;;5089328;28;20048;-69
2021/12/09 04:38:56;;;;;;;32.80;13.90;;;1.20;99.90;;;;;;5090084;28;20093;-69
2021/12/09 04:41:23;;;;;;;31.17;14.33;;;1.20;99.90;;;;;;5089880;28;20557;-69
2021/12/09 04:43:50;;;;;;;29.20;13.17;;;1.20;99.90;;;;;;5089692;28;20047;-69
2021/12/09 04:46:18;;;;;;;31.17;15.33;;;1.30;99.90;;;;;;5089283;28;20052;-69
2021/12/09 04:48:45;;;;;;;29.77;13.60;;;1.30;99.90;;;;;;5089711;28;20052;-69
2021/12/09 04:51:12;;;;;;;29.93;13.40;;;1.20;99.90;;;;;;5090002;28;20093;-69
2021/12/09 04:53:41;;;;;;;30.17;14.30;;;1.20;99.90;;;;;;5089639;28;20056;-69
2021/12/09 04:56:11;;;;;;;28.07;13.57;;;1.30;99.90;;;;;;5089008;28;20066;-69
2021/12/09 04:58:38;;;;;;;30.37;14.53;;;1.30;99.90;;;;;;5089922;28;20431;-69
2021/12/09 05:01:08;;;;;;;28.33;13.50;;;1.30;99.90;;;;;;5089543;28;20073;-69
2021/12/09 05:03:35;;;;;;;31.40;13.93;;;1.30;99.90;;;;;;5090337;28;20044;-69
2021/12/09 05:06:03;;;;;;;30.30;13.70;;;1.30;99.90;;;;;;5089689;28;20051;-69
2021/12/09 05:08:32;;;;;;;30.93;13.30;;;1.30;99.90;;;;;;5090438;28;20098;-69
2021/12/09 05:11:07;;;;;;;26.83;13.20;;;1.30;99.90;;;;;;5090329;28;20098;-69
2021/12/09 05:13:36;;;;;;;31.30;14.50;;;1.30;99.90;;;;;;5090493;28;20112;-69
2021/12/09 05:16:05;;;;;;;26.10;13.57;;;1.30;99.90;;;;;;5089979;28;20093;-69
2021/12/09 05:18:35;;;;;;;29.27;13.43;;;1.30;99.90;;;;;;5089371;28;20156;-69
2021/12/09 05:21:03;;;;;;;30.97;13.77;;;1.30;99.90;;;;;;5089591;28;20571;-69
2021/12/09 05:23:31;;;;;;;28.53;13.17;;;1.30;99.90;;;;;;5089658;28;20101;-69
2021/12/09 05:26:01;;;;;;;31.17;13.27;;;1.20;99.90;;;;;;5091572;28;20044;-69
2021/12/09 05:28:32;;;;;;;32.47;13.83;;;1.20;99.90;;;;;;5094288;28;20410;-69
2021/12/09 05:33:44;;;;;;;29.70;13.43;;;1.20;99.90;;;;;;5093409;28;20509;-69
2021/12/09 05:36:12;;;;;;;37.27;14.40;;;1.30;99.90;;;;;;5092633;28;20450;-69
2021/12/09 05:38:39;;;;;;;37.60;15.20;;;1.30;99.90;;;;;;5093351;28;20048;-69
2021/12/09 05:41:07;;;;;;;33.40;14.30;;;1.30;99.90;;;;;;5093533;28;20113;-69
2021/12/09 05:43:35;;;;;;;32.97;13.40;;;1.30;99.90;;;;;;5093374;28;20048;-69
2021/12/09 05:46:02;;;;;;;27.23;14.43;;;1.30;99.90;;;;;;5092521;28;20044;-69
2021/12/09 05:48:31;;;;;;;31.23;13.97;;;1.30;99.90;;;;;;5093015;28;20495;-69
2021/12/09 05:50:58;;;;;;;29.57;13.90;;;1.20;99.90;;;;;;5094103;28;20048;-70
2021/12/09 05:53:25;;;;;;;33.33;14.67;;;1.20;99.90;;;;;;5115042;28;20082;-70
2021/12/09 05:55:52;;;;;;;30.87;13.27;;;1.20;99.90;;;;;;5107411;28;20059;-70
2021/12/09 05:58:23;;;;;;;36.13;14.87;;;1.20;99.90;;;;;;5094247;28;20044;-69
2021/12/09 06:00:52;;;;;;;31.90;14.93;;;1.20;99.90;;;;;;5093807;28;20098;-70
2021/12/09 06:03:20;;;;;;;31.50;14.83;;;1.30;99.90;;;;;;5093269;28;20264;-69
2021/12/09 06:05:47;;;;;;;32.77;14.33;;;1.30;99.90;;;;;;5093409;28;20051;-70
2021/12/09 06:08:14;;;;;;;34.57;15.23;;;1.20;99.90;;;;;;5094010;28;20043;-70
2021/12/09 06:10:41;;;;;;;30.80;13.50;;;1.20;99.90;;;;;;5093753;28;20052;-70
2021/12/09 06:13:08;;;;;;;30.27;14.20;;;1.30;99.90;;;;;;5093587;28;20052;-69
2021/12/09 06:15:36;;;;;;;30.73;13.37;;;1.30;99.90;;;;;;5092802;28;20044;-70
2021/12/09 06:18:04;;;;;;;30.43;13.27;;;1.30;99.90;;;;;;5093716;28;20121;-70
2021/12/09 06:20:31;;;;;;;28.43;13.17;;;1.30;99.90;;;;;;5093655;28;20052;-70
2021/12/09 06:22:58;;;;;;;30.67;13.60;;;1.20;99.90;;;;;;5093785;28;20165;-70
2021/12/09 06:25:25;;;;;;;35.13;14.23;;;1.30;99.90;;;;;;5092991;28;20176;-70
2021/12/09 06:28:03;;;;;;;33.63;14.57;;;1.20;99.90;;;;;;5103694;28;20048;-70
2021/12/09 06:30:31;;;;;;;36.47;15.67;;;1.20;99.90;;;;;;5112046;28;20062;-70
2021/12/09 06:32:59;;;;;;;35.97;15.77;;;1.20;99.90;;;;;;5111371;28;20044;-70
2021/12/09 06:35:27;;;;;;;34.40;14.63;;;1.20;99.90;;;;;;5094568;28;20492;-70
2021/12/09 06:37:54;;;;;;;41.40;16.37;;;1.20;99.90;;;;;;5091750;28;20143;-70
2021/12/09 06:40:22;;;;;;;38.43;15.10;;;1.20;99.90;;;;;;5105240;28;20485;-70
2021/12/09 06:42:50;;;;;;;40.47;16.50;;;1.20;99.90;;;;;;5103374;28;20557;-70
2021/12/09 06:45:19;;;;;;;40.70;17.40;;;1.20;99.90;;;;;;5092229;28;20105;-70
2021/12/09 06:47:47;;;;;;;36.90;17.10;;;1.20;99.90;;;;;;5093158;28;20261;-69
2021/12/09 06:50:18;;;;;;;38.63;16.47;;;1.30;99.90;;;;;;5092669;28;20101;-70
2021/12/09 06:52:46;;;;;;;33.70;14.97;;;1.20;99.90;;;;;;5092913;28;20090;-70
2021/12/09 06:55:16;;;;;;;40.43;16.27;;;1.30;99.90;;;;;;5092167;28;20470;-69
2021/12/09 06:57:43;;;;;;;38.13;16.77;;;1.30;99.90;;;;;;5092172;28;20500;-70
2021/12/09 07:00:14;;;;;;;39.10;16.20;;;1.30;99.90;;;;;;5092131;28;20052;-70
2021/12/09 07:02:40;;;;;;;36.90;16.07;;;1.30;99.90;;;;;;5091541;28;20117;-70
2021/12/09 07:05:09;;;;;;;39.23;16.33;;;1.30;99.90;;;;;;5091298;28;20387;-70
2021/12/09 07:07:38;;;;;;;37.50;16.10;;;1.30;99.90;;;;;;5091842;28;20094;-69
2021/12/09 07:10:06;;;;;;;44.50;17.63;;;1.30;99.90;;;;;;5091975;28;20155;-69
2021/12/09 07:12:34;;;;;;;42.00;16.33;;;1.30;99.90;;;;;;5091681;28;20044;-69
2021/12/09 07:15:01;;;;;;;36.27;15.43;;;1.30;99.90;;;;;;5090920;28;20055;-70
2021/12/09 07:17:28;;;;;;;40.50;17.13;;;1.40;99.90;;;;;;5091574;28;20477;-69
2021/12/09 07:19:55;;;;;;;39.93;16.40;;;1.30;99.90;;;;;;5091623;28;20105;-69
2021/12/09 07:22:22;;;;;;;38.57;16.17;;;1.30;99.90;;;;;;5091380;28;20090;-70
2021/12/09 07:24:51;;;;;;;32.97;14.77;;;1.30;99.90;;;;;;5090730;28;20082;-70
2021/12/09 07:27:18;;;;;;;37.07;15.70;;;1.40;99.90;;;;;;5091506;28;20090;-70
2021/12/09 07:29:45;;;;;;;34.87;15.23;;;1.30;99.90;;;;;;5091332;28;20416;-72
2021/12/09 07:32:12;;;;;;;34.10;14.90;;;1.40;99.90;;;;;;5091133;28;20483;-70
2021/12/09 07:34:39;;;;;;;33.33;14.60;;;1.50;99.90;;;;;;5091218;28;20113;-70
2021/12/09 07:37:06;;;;;;;32.10;13.30;;;1.50;99.90;;;;;;5091602;28;20191;-70
2021/12/09 07:39:34;;;;;;;33.27;14.33;;;1.60;99.90;;;;;;5090995;28;20048;-69
2021/12/09 07:42:03;;;;;;;29.90;13.43;;;1.60;99.90;;;;;;5090998;28;20052;-70
2021/12/09 07:44:31;;;;;;;29.23;13.43;;;1.60;99.90;;;;;;5090615;28;20094;-70
2021/12/09 07:46:59;;;;;;;30.70;14.07;;;1.60;99.90;;;;;;5090313;28;20470;-70
2021/12/09 07:49:27;;;;;;;31.40;13.43;;;1.60;99.90;;;;;;5090994;28;20048;-70
2021/12/09 07:51:55;;;;;;;32.83;14.50;;;1.60;99.90;;;;;;5090907;28;20048;-70
2021/12/09 07:54:23;;;;;;;33.53;14.90;;;1.60;99.90;;;;;;5091342;28;20055;-70
2021/12/09 07:56:51;;;;;;;36.67;14.20;;;1.60;99.90;;;;;;5090272;28;20051;-70
2021/12/09 07:59:20;;;;;;;45.03;16.07;;;1.60;99.90;;;;;;5090718;28;20097;-70
2021/12/09 08:01:47;;;;;;;32.13;14.47;;;1.50;99.90;;;;;;5090712;28;20496;-70
2021/12/09 08:04:15;;;;;;;31.07;14.70;;;1.60;99.90;;;;;;5090649;28;20055;-70
2021/12/09 08:06:42;;;;;;;34.53;15.93;;;1.60;99.90;;;;;;5090101;28;20055;-70
2021/12/09 08:09:10;;;;;;;37.90;16.53;;;1.60;99.90;;;;;;5091422;28;20504;-70
2021/12/09 08:11:39;;;;;;;35.90;15.73;;;1.60;99.90;;;;;;5090812;28;20048;-70
2021/12/09 08:14:06;;;;;;;37.70;14.70;;;1.60;99.90;;;;;;5090700;28;20105;-70
2021/12/09 08:16:37;;;;;;;35.37;14.77;;;1.70;99.90;;;;;;5089979;28;20143;-70
2021/12/09 08:19:05;;;;;;;36.67;15.77;;;1.70;99.90;;;;;;5090443;28;20500;-70
2021/12/09 08:21:33;;;;;;;38.43;17.03;;;1.70;99.90;;;;;;5090741;28;20052;-70
2021/12/09 08:24:01;;;;;;;42.13;16.40;;;1.70;99.90;;;;;;5090371;28;20052;-70
2021/12/09 08:26:28;;;;;;;47.17;17.93;;;1.80;99.90;;;;;;5089862;28;20048;-70
2021/12/09 08:28:55;;;;;;;40.13;17.87;;;1.80;99.90;;;;;;5090442;28;20446;-70
2021/12/09 08:31:22;;;;;;;37.03;16.80;;;1.80;99.90;;;;;;5090421;28;20052;-70
2021/12/09 08:33:50;;;;;;;41.93;16.87;;;1.90;99.90;;;;;;5090199;28;20048;-70
2021/12/09 08:36:17;;;;;;;39.97;16.13;;;1.90;99.90;;;;;;5097103;28;20101;-71
2021/12/09 08:38:44;;;;;;;40.60;16.83;;;2.00;99.90;;;;;;5090026;28;20048;-70
2021/12/09 08:41:14;;;;;;;34.57;14.67;;;2.00;99.90;;;;;;5090195;28;20491;-71
2021/12/09 08:43:41;;;;;;;38.67;15.97;;;2.10;99.90;;;;;;5089864;28;20142;-70
2021/12/09 08:46:08;;;;;;;40.90;17.20;;;2.20;99.90;;;;;;5089433;28;20093;-70
2021/12/09 08:48:35;;;;;;;40.23;16.50;;;2.20;99.90;;;;;;5090196;28;20470;-70
2021/12/09 08:51:04;;;;;;;40.80;17.67;;;2.20;99.90;;;;;;5089940;28;20051;-70
2021/12/09 08:53:31;;;;;;;40.63;18.00;;;2.20;99.90;;;;;;5090132;28;20052;-70
2021/12/09 08:55:58;;;;;;;44.80;17.50;;;2.30;99.90;;;;;;5090141;28;20048;-70
2021/12/09 08:58:28;;;;;;;39.87;17.03;;;2.20;99.90;;;;;;5090838;28;20106;-71
2021/12/09 09:00:58;;;;;;;43.27;16.93;;;2.20;99.90;;;;;;5090703;28;20095;-71
2021/12/09 09:03:26;;;;;;;36.83;17.00;;;2.20;99.90;;;;;;5096021;28;20053;-71
2021/12/09 09:05:54;;;;;;;39.83;16.60;;;2.30;99.90;;;;;;5101288;28;20951;-71
2021/12/09 09:08:22;;;;;;;36.13;15.37;;;2.20;99.90;;;;;;5097094;28;20048;-70
2021/12/09 09:10:50;;;;;;;35.10;14.57;;;2.20;99.90;;;;;;5090833;28;20059;-70
2021/12/09 09:13:17;;;;;;;35.70;14.03;;;2.10;99.90;;;;;;5090218;28;20412;-70
2021/12/09 09:15:48;;;;;;;35.47;16.13;;;2.10;99.90;;;;;;5089000;28;20051;-70
2021/12/09 09:18:15;;;;;;;40.60;16.13;;;2.10;99.90;;;;;;5089609;28;20060;-70
2021/12/09 09:20:43;;;;;;;37.83;15.77;;;2.10;99.90;;;;;;5168555;22;20048;-74
2021/12/09 09:23:11;;;;;;;35.50;14.90;;;2.10;99.90;;;;;;5093903;28;20044;-74
2021/12/09 09:25:40;;;;;;;35.40;13.87;;;2.10;99.90;;;;;;5092039;28;20457;-74
2021/12/09 09:28:08;;;;;;;35.27;14.80;;;2.20;99.90;;;;;;5093705;28;20238;-74
2021/12/09 09:30:38;;;;;;;35.10;14.83;;;2.10;99.90;;;;;;5094493;28;20120;-74
2021/12/09 09:33:08;;;;;;;41.37;16.67;;;2.20;99.90;;;;;;5094061;28;20078;-74
2021/12/09 09:35:36;;;;;;;37.40;15.07;;;2.30;99.90;;;;;;5093508;28;20560;-75
2021/12/09 09:38:03;;;;;;;40.07;15.23;;;2.30;99.90;;;;;;5094464;28;20044;-75
2021/12/09 09:40:39;;;;;;;32.40;13.67;;;2.30;99.90;;;;;;5093862;28;20104;-75
2021/12/09 09:43:25;;;;;;;35.67;13.57;;;2.30;99.90;;;;;;5094558;28;20495;-78
2021/12/09 09:45:53;;;;;;;30.88;13.48;;;2.40;99.90;;;;;;5093091;28;20059;-74
2021/12/09 09:48:20;;;;;;;33.50;14.17;;;2.40;99.90;;;;;;5093364;28;20397;-73
2021/12/09 09:50:49;;;;;;;32.57;13.60;;;2.40;99.90;;;;;;5094290;28;20044;-74
2021/12/09 09:53:17;;;;;;;35.20;13.83;;;2.30;99.90;;;;;;5094514;28;20093;-76
2021/12/09 09:55:46;;;;;;;31.87;13.63;;;2.40;99.90;;;;;;5093423;28;20056;-74
2021/12/09 09:58:16;;;;;;;35.43;15.33;;;2.50;99.90;;;;;;5093994;28;20074;-75
2021/12/09 10:00:44;;;;;;;35.63;15.57;;;2.50;99.90;;;;;;5093710;28;20052;-77
2021/12/09 10:03:16;;;;;;;41.80;15.80;;;2.50;99.90;;;;;;5094421;28;20048;-75
2021/12/09 10:05:46;;;;;;;33.13;13.87;;;2.50;99.90;;;;;;5094850;28;20488;-75
2021/12/09 10:08:15;;;;;;;32.63;15.00;;;2.40;99.90;;;;;;5094882;28;20177;-75
2021/12/09 10:10:44;;;;;;;33.63;14.40;;;2.50;99.90;;;;;;5095023;28;20384;-77
2021/12/09 10:13:13;;;;;;;32.80;14.37;;;2.40;99.90;;;;;;5097471;28;20081;-77
2021/12/09 10:15:47;;;;;;;35.57;14.80;;;2.50;99.90;;;;;;5097927;28;20070;-74
2021/12/09 10:18:31;;;;;;;30.50;14.23;;;2.50;99.90;;;;;;5097983;28;20048;-77
2021/12/09 10:20:58;;;;;;;32.87;14.03;;;2.60;99.90;;;;;;5097664;28;20519;-74
2021/12/09 10:23:32;;;;;;;31.27;13.73;;;2.70;99.90;;;;;;5097870;28;20499;-76
2021/12/09 10:26:27;;;;;;;33.63;14.97;;;2.80;99.90;;;;;;5096728;28;20112;-76
2021/12/09 10:29:04;;;;;;;31.37;13.60;;;2.80;99.90;;;;;;5050113;28;20078;-75
2021/12/09 10:31:35;;;;;;;29.48;12.85;;;2.90;99.90;;;;;;5097444;28;20109;-77
2021/12/09 10:34:19;;;;;;;33.67;14.90;;;2.90;99.90;;;;;;5097175;28;20056;-77
2021/12/09 10:36:51;;;;;;;29.47;13.30;;;3.00;99.90;;;;;;5096916;28;20081;-76
2021/12/09 10:39:29;;;;;;;37.07;14.57;;;3.00;99.90;;;;;;5096647;28;20101;-76
2021/12/09 10:41:58;;;;;;;36.67;13.90;;;3.00;99.90;;;;;;5097484;28;20052;-75
2021/12/09 10:44:37;;;;;;;29.50;12.70;;;3.00;99.90;;;;;;5097027;28;20470;-76
2021/12/09 10:47:12;;;;;;;31.13;13.23;;;2.90;99.90;;;;;;5098133;28;20048;-76
2021/12/09 10:50:10;;;;;;;35.33;14.70;;;2.90;99.90;;;;;;5097105;28;20064;-76
2021/12/09 10:52:43;;;;;;;33.37;12.87;;;2.90;99.90;;;;;;5097914;28;20517;-76
2021/12/09 10:55:18;;;;;;;27.90;12.90;;;2.90;99.90;;;;;;5096447;28;20483;-75
2021/12/09 10:57:46;;;;;;;35.07;13.87;;;2.90;99.90;;;;;;5096876;28;20056;-75
2021/12/09 11:00:23;;;;;;;32.80;12.37;;;3.00;99.90;;;;;;5097957;28;20052;-76
2021/12/09 11:03:14;;;;;;;33.80;13.85;;;2.80;99.90;;;;;;5097481;28;20077;-76
2021/12/09 11:05:46;;;;;;;31.80;14.53;;;2.90;99.90;;;;;;5096279;28;20484;-74
2021/12/09 11:08:20;;;;;;;29.80;13.57;;;2.90;99.90;;;;;;5097133;28;20044;-78
2021/12/09 11:10:49;;;;;;;31.83;13.67;;;3.00;99.90;;;;;;5096268;28;20048;-76
2021/12/09 11:13:19;;;;;;;31.60;13.67;;;2.90;99.90;;;;;;5097050;28;20083;-75
2021/12/09 11:15:54;;;;;;;32.13;14.60;;;2.90;99.90;;;;;;5097143;28;20094;-75
2021/12/09 11:18:35;;;;;;;36.03;14.53;;;3.00;99.90;;;;;;5097331;28;20083;-75
2021/12/09 11:21:05;;;;;;;33.27;15.33;;;2.90;99.90;;;;;;5097413;28;20086;-78
2021/12/09 11:23:36;;;;;;;30.33;14.43;;;2.80;99.90;;;;;;5097115;28;20108;-76
2021/12/09 11:26:31;;;;;;;32.73;14.10;;;2.90;99.90;;;;;;5097145;28;20040;-75
2021/12/09 11:29:01;;;;;;;33.63;15.10;;;2.90;99.90;;;;;;5097735;28;20044;-74
2021/12/09 11:31:33;;;;;;;37.77;15.93;;;2.90;99.90;;;;;;5097609;28;20040;-74
2021/12/09 11:34:10;;;;;;;36.30;16.50;;;2.90;99.90;;;;;;5097747;28;20048;-75
2021/12/09 11:37:03;;;;;;;30.77;14.87;;;2.90;99.90;;;;;;5096063;28;20511;-75
2021/12/09 11:39:35;;;;;;;36.63;15.03;;;2.90;99.90;;;;;;5094063;28;20500;-74
2021/12/09 11:42:20;;;;;;;35.73;14.20;;;2.70;99.90;;;;;;5096931;28;20079;-75
2021/12/09 11:44:48;;;;;;;29.13;14.43;;;2.80;99.90;;;;;;5095836;28;20519;-75
2021/12/09 11:47:16;;;;;;;32.57;14.27;;;2.90;99.90;;;;;;5096841;28;20048;-79
2021/12/09 11:49:46;;;;;;;33.00;14.27;;;3.00;99.90;;;;;;5096327;28;20101;-75
2021/12/09 11:52:14;;;;;;;30.27;13.50;;;3.10;99.90;;;;;;5096163;28;20051;-76
2021/12/09 11:54:48;;;;;;;31.27;14.93;;;3.00;99.90;;;;;;5095683;28;20051;-74
2021/12/09 11:57:30;;;;;;;39.50;14.67;;;3.00;99.90;;;;;;5096706;28;20055;-75
2021/12/09 12:12:36;;;;;;;29.43;14.20;;;4.20;99.90;;;;;;5093851;28;20080;-76
2021/12/09 12:15:44;;;;;;;25.93;13.27;;;4.00;99.90;;;;;;5093137;28;20542;-76
2021/12/09 12:18:30;;;;;;;34.13;14.77;;;4.10;99.90;;;;;;5011987;28;20092;-75
2021/12/09 12:21:11;;;;;;;41.42;16.13;;;4.10;99.90;;;;;;5092010;28;20052;-76
2021/12/09 12:23:50;;;;;;;43.27;17.67;;;4.10;99.90;;;;;;5092574;28;20052;-74
2021/12/09 12:29:36;;;;;;;40.07;17.83;;;4.10;99.90;;;;;;5091940;28;20040;-75
2021/12/09 12:32:35;;;;;;;43.73;18.93;;;4.00;99.90;;;;;;5093959;28;20114;-75
2021/12/09 12:35:26;;;;;;;46.20;18.63;;;4.00;99.90;;;;;;5092066;28;20048;-77
2021/12/09 12:38:03;;;;;;;42.87;17.37;;;4.00;99.90;;;;;;5091831;28;20611;-76
2021/12/09 12:40:37;;;;;;;50.65;19.17;;;3.90;99.90;;;;;;5091948;28;20052;-76
2021/12/09 12:43:08;;;;;;;44.60;19.50;;;3.90;99.90;;;;;;5094315;28;20454;-76
2021/12/09 12:45:54;;;;;;;46.93;19.30;;;3.90;99.90;;;;;;5091621;28;20385;-76
2021/12/09 12:49:02;;;;;;;46.20;19.37;;;3.80;99.90;;;;;;5094142;28;20496;-77
2021/12/09 12:51:34;;;;;;;47.78;19.50;;;3.90;99.90;;;;;;5091631;28;20087;-75
2021/12/09 12:54:20;;;;;;;45.87;19.33;;;3.90;99.90;;;;;;5091489;28;20484;-77
2021/12/09 12:56:54;;;;;;;49.10;20.10;;;3.90;99.90;;;;;;5092030;28;20052;-73
2021/12/09 12:59:28;;;;;;;46.83;18.53;;;3.90;99.90;;;;;;5092045;28;20056;-74
2021/12/09 13:03:01;;;;;;;50.93;19.67;;;3.80;99.90;;;;;;5091788;28;20044;-76
2021/12/09 13:05:44;;;;;;;46.03;18.33;;;3.70;99.90;;;;;;5095889;28;20075;-76
2021/12/09 13:13:59;;;;;;;67.10;19.27;;;3.40;99.90;;;;;;5095260;28;20097;-76
2021/12/09 13:16:38;;;;;;;42.07;17.40;;;3.40;99.90;;;;;;5094718;28;20051;-77